createdAt,value
2023-05-03T00:00:08.468Z,101250.53
2023-05-03T00:02:39.084Z,101253.25
2023-05-03T00:05:09.793Z,101250.00
2023-05-03T00:07:36.467Z,101246.00
2023-05-03T00:10:03.216Z,101250.38
2023-05-03T00:12:30.185Z,101252.47
2023-05-03T00:14:56.577Z,101248.97
2023-05-03T00:17:23.045Z,101252.59
2023-05-03T00:19:49.541Z,101253.50
2023-05-03T00:22:15.938Z,101250.53
2023-05-03T00:24:42.475Z,101247.56
2023-05-03T00:27:08.868Z,101253.63
2023-05-03T00:29:35.256Z,101252.47
2023-05-03T00:32:02.459Z,101252.47
2023-05-03T00:34:28.902Z,101252.47
2023-05-03T00:36:55.291Z,101242.66
2023-05-03T00:39:21.746Z,101242.50
2023-05-03T00:41:48.165Z,101246.53
2023-05-03T00:44:14.585Z,101242.00
2023-05-03T00:46:41.156Z,101242.25
2023-05-03T00:49:07.594Z,101245.47
2023-05-03T00:51:34.093Z,101246.91
2023-05-03T00:54:00.748Z,101245.59
2023-05-03T00:56:30.993Z,101249.09
2023-05-03T00:58:59.942Z,101246.00
2023-05-03T01:01:26.766Z,101237.72
2023-05-03T01:03:53.395Z,101237.88
2023-05-03T01:06:27.703Z,101231.91
2023-05-03T01:09:12.630Z,101228.13
2023-05-03T01:11:52.506Z,101231.78
2023-05-03T01:14:34.466Z,101230.63
2023-05-03T01:17:08.150Z,101233.56
2023-05-03T01:19:38.851Z,101227.50
2023-05-03T01:22:42.587Z,101226.22
2023-05-03T01:25:11.363Z,101233.06
2023-05-03T01:27:39.081Z,101231.38
2023-05-03T01:30:10.611Z,101234.22
2023-05-03T01:33:10.772Z,101235.00
2023-05-03T01:35:41.050Z,101236.63
2023-05-03T01:38:09.067Z,101236.88
2023-05-03T01:40:42.392Z,101238.28
2023-05-03T01:43:13.374Z,101237.50
2023-05-03T01:45:40.833Z,101240.09
2023-05-03T01:48:11.988Z,101245.13
2023-05-03T01:50:38.327Z,101245.38
2023-05-03T01:53:04.804Z,101246.25
2023-05-03T01:55:31.418Z,101245.13
2023-05-03T01:57:57.942Z,101254.28
2023-05-03T02:00:24.505Z,101252.88
2023-05-03T02:02:51.140Z,101248.59
2023-05-03T02:05:17.571Z,101249.25
2023-05-03T02:07:44.198Z,101253.38
2023-05-03T02:10:14.814Z,101257.25
2023-05-03T02:12:42.407Z,101254.28
2023-05-03T02:15:09.495Z,101267.09
2023-05-03T02:17:35.955Z,101258.28
2023-05-03T02:20:03.574Z,101258.28
2023-05-03T02:22:30.265Z,101258.78
2023-05-03T02:24:57.004Z,101258.38
2023-05-03T02:27:23.498Z,101263.81
2023-05-03T02:29:49.989Z,101266.78
2023-05-03T02:32:16.528Z,101268.06
2023-05-03T02:34:45.015Z,101263.19
2023-05-03T02:37:11.405Z,101271.72
2023-05-03T02:39:38.002Z,101266.53
2023-05-03T02:42:04.799Z,101268.63
2023-05-03T02:44:33.515Z,101261.28
2023-05-03T02:47:00.442Z,101263.06
2023-05-03T02:49:26.880Z,101263.19
2023-05-03T02:51:53.366Z,101268.81
2023-05-03T02:54:19.856Z,101264.34
2023-05-03T02:56:46.235Z,101276.88
2023-05-03T02:59:12.799Z,101268.06
2023-05-03T03:01:39.254Z,101271.72
2023-05-03T03:04:06.669Z,101274.78
2023-05-03T03:06:33.209Z,101272.59
2023-05-03T03:08:59.664Z,101273.34
2023-05-03T03:11:26.740Z,101274.88
2023-05-03T03:13:53.172Z,101273.47
2023-05-03T03:16:19.920Z,101272.34
2023-05-03T03:18:46.471Z,101268.38
2023-05-03T03:21:12.880Z,101269.78
2023-05-03T03:23:39.323Z,101266.28
2023-05-03T03:26:06.241Z,101277.91
2023-05-03T03:28:32.716Z,101271.34
2023-05-03T03:30:59.171Z,101275.88
2023-05-03T03:33:25.902Z,101273.00
2023-05-03T03:35:53.061Z,101263.97
2023-05-03T03:38:19.481Z,101274.53
2023-05-03T03:40:45.894Z,101274.34
2023-05-03T03:43:12.379Z,101274.03
2023-05-03T03:45:38.774Z,101279.38
2023-05-03T03:48:05.740Z,101282.09
2023-05-03T03:50:32.361Z,101277.69
2023-05-03T03:52:58.773Z,101281.69
2023-05-03T03:55:25.225Z,101282.28
2023-05-03T03:57:51.829Z,101284.78
2023-05-03T04:00:18.379Z,101288.09
2023-05-03T04:02:46.750Z,101287.75
2023-05-03T04:05:14.201Z,101284.53
2023-05-03T04:07:40.627Z,101283.00
2023-05-03T04:10:07.693Z,101290.09
2023-05-03T04:12:34.181Z,101294.38
2023-05-03T04:15:00.695Z,101291.63
2023-05-03T04:17:27.303Z,101296.97
2023-05-03T04:19:53.728Z,101296.56
2023-05-03T04:22:20.203Z,101300.03
2023-05-03T04:24:47.865Z,101305.97
2023-05-03T04:27:14.740Z,101304.56
2023-05-03T04:29:41.525Z,101310.91
2023-05-03T04:32:08.338Z,101301.63
2023-05-03T04:34:34.773Z,101305.59
2023-05-03T04:37:01.586Z,101307.41
2023-05-03T04:39:28.024Z,101311.56
2023-05-03T04:41:54.500Z,101312.75
2023-05-03T04:44:21.161Z,101310.94
2023-05-03T04:46:49.439Z,101328.63
2023-05-03T04:49:17.782Z,101323.19
2023-05-03T04:51:44.248Z,101328.47
2023-05-03T04:54:10.724Z,101330.16
2023-05-03T04:56:37.157Z,101336.63
2023-05-03T04:59:05.322Z,101334.63
2023-05-03T05:01:32.556Z,101338.66
2023-05-03T05:03:59.489Z,101337.13
2023-05-03T05:06:26.072Z,101340.59
2023-05-03T05:08:52.565Z,101346.91
2023-05-03T05:11:20.822Z,101342.38
2023-05-03T05:13:47.587Z,101343.44
2023-05-03T05:16:14.036Z,101343.09
2023-05-03T05:18:40.833Z,101349.94
2023-05-03T05:21:08.343Z,101347.06
2023-05-03T05:23:34.960Z,101349.81
2023-05-03T05:26:01.580Z,101350.19
2023-05-03T05:28:28.518Z,101354.97
2023-05-03T05:30:55.012Z,101353.56
2023-05-03T05:33:21.465Z,101349.19
2023-05-03T05:35:48.894Z,101363.69
2023-05-03T05:38:17.496Z,101357.75
2023-05-03T05:40:44.410Z,101352.28
2023-05-03T05:43:11.078Z,101351.28
2023-05-03T05:45:38.271Z,101353.75
2023-05-03T05:48:05.063Z,101361.13
2023-05-03T05:50:31.670Z,101357.00
2023-05-03T05:52:58.129Z,101365.53
2023-05-03T05:55:24.923Z,101359.47
2023-05-03T05:57:51.342Z,101357.50
2023-05-03T06:00:18.942Z,101361.41
2023-05-03T06:02:45.710Z,101360.88
2023-05-03T06:05:12.303Z,101364.91
2023-05-03T06:07:39.066Z,101366.44
2023-05-03T06:10:06.223Z,101363.72
2023-05-03T06:12:32.854Z,101364.91
2023-05-03T06:15:02.829Z,101371.38
2023-05-03T06:17:29.970Z,101370.84
2023-05-03T06:19:57.648Z,101375.63
2023-05-03T06:22:25.177Z,101374.88
2023-05-03T06:24:51.701Z,101372.94
2023-05-03T06:27:18.177Z,101374.63
2023-05-03T06:29:44.932Z,101371.50
2023-05-03T06:32:11.802Z,101374.59
2023-05-03T06:34:38.359Z,101383.16
2023-05-03T06:37:05.012Z,101377.47
2023-05-03T06:39:31.480Z,101386.00
2023-05-03T06:41:57.871Z,101389.13
2023-05-03T06:44:24.297Z,101394.16
2023-05-03T06:46:51.417Z,101385.22
2023-05-03T06:49:18.193Z,101393.25
2023-05-03T06:51:44.614Z,101392.72
2023-05-03T06:54:11.046Z,101394.28
2023-05-03T06:56:37.593Z,101395.06
2023-05-03T06:59:04.265Z,101390.78
2023-05-03T07:01:34.525Z,101393.00
2023-05-03T07:04:01.233Z,101400.38
2023-05-03T07:06:27.840Z,101398.16
2023-05-03T07:08:54.708Z,101401.91
2023-05-03T07:11:24.828Z,101404.63
2023-05-03T07:13:52.235Z,101400.25
2023-05-03T07:16:19.776Z,101402.19
2023-05-03T07:18:47.475Z,101394.03
2023-05-03T07:21:14.741Z,101402.31
2023-05-03T07:23:41.667Z,101395.69
2023-05-03T07:26:08.574Z,101392.59
2023-05-03T07:28:34.980Z,101392.44
2023-05-03T07:31:03.410Z,101397.09
2023-05-03T07:33:31.548Z,101396.16
2023-05-03T07:35:58.101Z,101391.88
2023-05-03T07:38:24.549Z,101397.19
2023-05-03T07:40:50.935Z,101389.03
2023-05-03T07:43:21.239Z,101396.16
2023-05-03T07:45:47.715Z,101389.19
2023-05-03T07:48:14.667Z,101398.63
2023-05-03T07:50:45.430Z,101394.22
2023-05-03T07:53:12.651Z,101401.22
2023-05-03T07:55:39.694Z,101392.16
2023-05-03T07:58:06.303Z,101395.22
2023-05-03T08:00:32.799Z,101393.78
2023-05-03T08:02:59.463Z,101399.13
2023-05-03T08:05:26.017Z,101404.16
2023-05-03T08:07:53.329Z,101392.38
2023-05-03T08:10:19.978Z,101395.69
2023-05-03T08:12:46.591Z,101399.28
2023-05-03T08:15:13.161Z,101400.31
2023-05-03T08:17:44.566Z,101400.31
2023-05-03T08:20:11.868Z,101406.00
2023-05-03T08:22:40.379Z,101395.41
2023-05-03T08:25:07.704Z,101398.72
2023-05-03T08:27:34.385Z,101398.94
2023-05-03T08:30:01.753Z,101402.28
2023-05-03T08:32:30.423Z,101405.22
2023-05-03T08:34:56.933Z,101402.41
2023-05-03T08:37:23.669Z,101406.38
2023-05-03T08:39:50.394Z,101404.22
2023-05-03T08:42:16.977Z,101405.38
2023-05-03T08:44:50.920Z,101405.28
2023-05-03T08:47:17.525Z,101403.44
2023-05-03T08:49:44.723Z,101410.44
2023-05-03T08:52:14.030Z,101410.97
2023-05-03T08:54:41.343Z,101407.34
2023-05-03T08:57:11.656Z,101402.16
2023-05-03T08:59:53.549Z,101406.72
2023-05-03T09:02:21.317Z,101407.31
2023-05-03T09:04:47.820Z,101414.34
2023-05-03T09:07:16.754Z,101404.47
2023-05-03T09:09:45.619Z,101405.13
2023-05-03T09:12:33.766Z,101406.16
2023-05-03T09:15:00.923Z,101414.81
2023-05-03T09:17:27.508Z,101399.59
2023-05-03T09:19:56.034Z,101415.03
2023-05-03T09:22:25.416Z,101401.06
2023-05-03T09:24:59.987Z,101394.88
2023-05-03T09:27:27.285Z,101396.28
2023-05-03T09:29:54.848Z,101392.97
2023-05-03T09:32:22.908Z,101392.25
2023-05-03T09:34:49.481Z,101385.75
2023-05-03T09:37:16.401Z,101395.84
2023-05-03T09:39:44.853Z,101393.81
2023-05-03T09:42:23.724Z,101393.44
2023-05-03T09:44:53.879Z,101388.06
2023-05-03T09:47:22.008Z,101384.84
2023-05-03T09:49:48.660Z,101386.84
2023-05-03T09:52:15.115Z,101388.13
2023-05-03T09:54:49.683Z,101384.25
2023-05-03T09:57:16.534Z,101377.56
2023-05-03T09:59:45.204Z,101384.75
2023-05-03T10:02:11.635Z,101378.00
2023-05-03T10:04:50.774Z,101371.56
2023-05-03T10:07:18.821Z,101372.47
2023-05-03T10:09:49.348Z,101373.00
2023-05-03T10:12:19.161Z,101364.44
2023-05-03T10:14:48.121Z,101361.72
2023-05-03T10:17:31.838Z,101365.38
2023-05-03T10:20:44.269Z,101366.06
2023-05-03T10:23:12.905Z,101363.97
2023-05-03T10:26:00.619Z,101362.34
2023-05-03T10:28:27.034Z,101362.91
2023-05-03T10:30:54.537Z,101356.03
2023-05-03T10:33:29.010Z,101351.69
2023-05-03T10:35:56.092Z,101351.06
2023-05-03T10:38:24.336Z,101348.84
2023-05-03T10:40:51.875Z,101350.47
2023-05-03T10:43:33.081Z,101347.66
2023-05-03T10:46:01.206Z,101347.16
2023-05-03T10:48:29.001Z,101346.06
2023-05-03T10:50:56.664Z,101336.97
2023-05-03T10:53:38.173Z,101335.66
2023-05-03T10:56:12.499Z,101323.41
2023-05-03T10:58:46.814Z,101326.84
2023-05-03T11:01:16.183Z,101324.84
2023-05-03T11:03:42.595Z,101322.31
2023-05-03T11:06:09.190Z,101314.56
2023-05-03T11:08:37.840Z,101318.81
2023-05-03T11:11:09.879Z,101305.13
2023-05-03T11:13:37.085Z,101307.72
2023-05-03T11:16:05.865Z,101305.28
2023-05-03T11:18:32.523Z,101304.78
2023-05-03T11:20:59.479Z,101307.06
2023-05-03T11:23:29.719Z,101312.22
2023-05-03T11:26:00.029Z,101315.84
2023-05-03T11:28:26.495Z,101309.34
2023-05-03T11:30:53.166Z,101303.75
2023-05-03T11:33:19.816Z,101302.25
2023-05-03T11:35:46.494Z,101306.28
2023-05-03T11:38:12.899Z,101304.94
2023-05-03T11:40:39.828Z,101300.69
2023-05-03T11:43:09.511Z,101299.81
2023-05-03T11:45:45.479Z,101300.97
2023-05-03T11:48:13.414Z,101298.81
2023-05-03T11:50:51.526Z,101299.16
2023-05-03T11:53:18.909Z,101293.69
2023-05-03T11:55:48.338Z,101296.81
2023-05-03T11:58:32.807Z,101291.59
2023-05-03T12:00:59.470Z,101292.59
2023-05-03T12:03:35.983Z,101293.56
2023-05-03T12:06:04.403Z,101297.31
2023-05-03T12:08:36.359Z,101304.31
2023-05-03T12:11:07.552Z,101299.09
2023-05-03T12:13:39.691Z,101296.25
2023-05-03T12:18:57.937Z,101291.94
2023-05-03T12:24:01.340Z,101289.88
2023-05-03T12:26:28.199Z,101298.97
2023-05-03T12:28:56.728Z,101293.56
2023-05-03T12:31:23.701Z,101296.19
2023-05-03T12:34:09.180Z,101295.03
2023-05-03T12:36:38.502Z,101294.56
2023-05-03T12:39:09.237Z,101293.75
2023-05-03T12:44:09.926Z,101295.00
2023-05-03T12:46:38.381Z,101289.25
2023-05-03T12:49:07.723Z,101285.09
2023-05-03T12:51:35.389Z,101285.72
2023-05-03T12:54:02.644Z,101289.16
2023-05-03T12:56:32.579Z,101287.53
2023-05-03T12:59:28.410Z,101280.66
2023-05-03T13:03:09.898Z,101278.69
2023-05-03T13:04:56.758Z,101269.50
2023-05-03T13:07:27.943Z,101267.72
2023-05-03T13:12:34.199Z,101261.91
2023-05-03T13:15:03.597Z,101258.75
2023-05-03T13:17:31.152Z,101252.56
2023-05-03T13:19:57.693Z,101256.78
2023-05-03T13:22:24.193Z,101254.88
2023-05-03T13:24:50.728Z,101256.19
2023-05-03T13:27:17.986Z,101245.19
2023-05-03T13:29:47.490Z,101249.88
2023-05-03T13:32:16.079Z,101246.19
2023-05-03T13:35:35.882Z,101238.16
2023-05-03T13:38:02.297Z,101244.91
2023-05-03T13:40:29.206Z,101240.47
2023-05-03T13:42:55.723Z,101233.78
2023-05-03T13:45:22.127Z,101230.31
2023-05-03T13:48:04.673Z,101234.66
2023-05-03T13:50:35.034Z,101226.91
2023-05-03T13:53:02.029Z,101234.81
2023-05-03T13:55:28.929Z,101233.16
2023-05-03T13:57:55.664Z,101229.31
2023-05-03T14:00:22.264Z,101229.69
2023-05-03T14:02:48.896Z,101229.16
2023-05-03T14:05:15.558Z,101229.47
2023-05-03T14:07:42.359Z,101226.97
2023-05-03T14:10:10.226Z,101227.16
2023-05-03T14:12:37.934Z,101223.91
2023-05-03T14:15:06.018Z,101224.94
2023-05-03T14:17:33.156Z,101229.06
2023-05-03T14:20:00.227Z,101217.53
2023-05-03T14:22:27.521Z,101226.69
2023-05-03T14:24:54.013Z,101223.19
2023-05-03T14:27:22.101Z,101223.19
2023-05-03T14:29:48.942Z,101233.41
2023-05-03T14:32:15.738Z,101219.97
2023-05-03T14:34:42.809Z,101218.69
2023-05-03T14:37:09.500Z,101219.41
2023-05-03T14:39:36.550Z,101225.56
2023-05-03T14:42:03.306Z,101221.22
2023-05-03T14:44:30.026Z,101223.94
2023-05-03T14:46:59.202Z,101223.13
2023-05-03T14:49:25.915Z,101222.84
2023-05-03T14:51:52.560Z,101223.75
2023-05-03T14:54:19.826Z,101223.41
2023-05-03T14:56:46.553Z,101230.31
2023-05-03T14:59:13.197Z,101216.91
2023-05-03T15:01:40.920Z,101213.63
2023-05-03T15:04:10.853Z,101216.41
2023-05-03T15:06:39.605Z,101216.41
2023-05-03T15:09:08.246Z,101216.16
2023-05-03T15:11:34.998Z,101217.59
2023-05-03T15:14:01.811Z,101214.31
2023-05-03T15:16:28.302Z,101205.78
2023-05-03T15:18:55.895Z,101207.28
2023-05-03T15:21:22.730Z,101208.44
2023-05-03T15:23:49.720Z,101214.50
2023-05-03T15:26:25.886Z,101211.63
2023-05-03T15:28:52.429Z,101201.91
2023-05-03T15:31:19.417Z,101203.91
2023-05-03T15:33:46.010Z,101199.41
2023-05-03T15:36:13.672Z,101198.78
2023-05-03T15:38:40.896Z,101201.72
2023-05-03T15:41:08.007Z,101207.13
2023-05-03T15:43:34.990Z,101202.44
2023-05-03T15:46:01.792Z,101201.38
2023-05-03T15:48:36.233Z,101212.00
2023-05-03T15:51:03.064Z,101212.91
2023-05-03T15:53:29.867Z,101202.91
2023-05-03T15:55:57.428Z,101206.72
2023-05-03T15:58:25.275Z,101207.81
2023-05-03T16:00:52.301Z,101209.31
2023-05-03T16:03:18.783Z,101211.47
2023-05-03T16:05:46.744Z,101212.56
2023-05-03T16:08:13.468Z,101203.22
2023-05-03T16:10:40.294Z,101204.63
2023-05-03T16:13:08.678Z,101202.47
2023-05-03T16:15:35.372Z,101205.56
2023-05-03T16:18:01.856Z,101193.66
2023-05-03T16:20:28.342Z,101194.22
2023-05-03T16:22:54.837Z,101197.63
2023-05-03T16:25:21.594Z,101198.72
2023-05-03T16:27:48.286Z,101194.22
2023-05-03T16:30:15.646Z,101196.28
2023-05-03T16:32:43.229Z,101200.63
2023-05-03T16:35:09.796Z,101192.06
2023-05-03T16:37:37.527Z,101194.84
2023-05-03T16:40:10.061Z,101196.56
2023-05-03T16:42:38.062Z,101194.09
2023-05-03T16:45:07.857Z,101195.00
2023-05-03T16:47:34.997Z,101200.94
2023-05-03T16:50:01.525Z,101202.50
2023-05-03T16:52:28.739Z,101201.41
2023-05-03T16:54:55.487Z,101197.53
2023-05-03T16:57:22.174Z,101200.75
2023-05-03T16:59:48.604Z,101197.78
2023-05-03T17:02:15.056Z,101201.00
2023-05-03T17:04:41.858Z,101195.78
2023-05-03T17:07:08.271Z,101194.69
2023-05-03T17:09:34.728Z,101206.06
2023-05-03T17:12:03.482Z,101206.69
2023-05-03T17:14:31.127Z,101203.13
2023-05-03T17:16:57.662Z,101204.84
2023-05-03T17:19:24.169Z,101210.00
2023-05-03T17:21:50.598Z,101207.47
2023-05-03T17:24:17.053Z,101212.50
2023-05-03T17:26:43.492Z,101216.84
2023-05-03T17:29:09.944Z,101221.06
2023-05-03T17:31:36.541Z,101227.72
2023-05-03T17:34:03.045Z,101224.84
2023-05-03T17:36:29.509Z,101222.03
2023-05-03T17:38:56.119Z,101220.84
2023-05-03T17:41:22.545Z,101226.84
2023-05-03T17:43:49.732Z,101216.94
2023-05-03T17:46:17.772Z,101234.03
2023-05-03T17:48:44.429Z,101232.03
2023-05-03T17:51:13.209Z,101226.72
2023-05-03T17:53:40.412Z,101229.94
2023-05-03T17:56:31.625Z,101231.38
2023-05-03T17:58:58.209Z,101240.78
2023-05-03T18:01:24.980Z,101238.81
2023-05-03T18:03:51.645Z,101240.22
2023-05-03T18:06:18.511Z,101239.31
2023-05-03T18:08:44.999Z,101248.75
2023-05-03T18:11:11.472Z,101247.56
2023-05-03T18:13:37.972Z,101247.38
2023-05-03T18:16:08.220Z,101261.69
2023-05-03T18:18:34.812Z,101257.09
2023-05-03T18:21:03.407Z,101256.78
2023-05-03T18:23:31.166Z,101262.72
2023-05-03T18:25:57.595Z,101257.91
2023-05-03T18:31:57.481Z,101265.91
2023-05-03T18:34:26.797Z,101270.81
2023-05-03T18:36:53.360Z,101262.91
2023-05-03T18:39:19.776Z,101272.25
2023-05-03T18:41:46.491Z,101272.72
2023-05-03T18:44:12.956Z,101277.75
2023-05-03T18:49:09.932Z,101289.72
2023-05-03T18:54:16.190Z,101297.75
2023-05-03T18:56:42.595Z,101297.50
2023-05-03T19:02:01.631Z,101305.31
2023-05-03T19:04:28.757Z,101313.56
2023-05-03T19:06:56.168Z,101314.44
2023-05-03T19:11:51.896Z,101317.66
2023-05-03T19:14:18.640Z,101326.13
2023-05-03T19:16:45.134Z,101327.66
2023-05-03T19:19:13.521Z,101330.03
2023-05-03T19:21:42.212Z,101330.81
2023-05-03T19:24:14.068Z,101339.00
2023-05-03T19:26:40.815Z,101341.81
2023-05-03T19:29:08.920Z,101342.38
2023-05-03T19:31:35.446Z,101350.00
2023-05-03T19:34:01.987Z,101346.50
2023-05-03T19:36:28.415Z,101350.81
2023-05-03T19:38:54.921Z,101355.06
2023-05-03T19:41:21.393Z,101356.56
2023-05-03T19:43:47.799Z,101361.34
2023-05-03T19:46:16.191Z,101362.50
2023-05-03T19:48:42.931Z,101359.66
2023-05-03T19:51:16.252Z,101364.19
2023-05-03T19:53:42.848Z,101377.78
2023-05-03T19:56:09.939Z,101372.25
2023-05-03T19:58:36.389Z,101374.84
2023-05-03T20:01:02.814Z,101372.00
2023-05-03T20:03:29.389Z,101378.22
2023-05-03T20:05:56.421Z,101385.91
2023-05-03T20:08:24.148Z,101379.81
2023-05-03T20:10:51.183Z,101387.88
2023-05-03T20:13:17.702Z,101388.44
2023-05-03T20:15:44.219Z,101390.44
2023-05-03T20:18:10.722Z,101400.19
2023-05-03T20:20:37.358Z,101398.38
2023-05-03T20:23:03.784Z,101403.38
2023-05-03T20:25:30.191Z,101397.03
2023-05-03T20:27:57.133Z,101399.84
2023-05-03T20:30:23.635Z,101408.22
2023-05-03T20:32:50.124Z,101402.47
2023-05-03T20:35:17.035Z,101402.88
2023-05-03T20:37:43.450Z,101407.66
2023-05-03T20:40:11.321Z,101404.03
2023-05-03T20:42:37.809Z,101408.44
2023-05-03T20:45:05.308Z,101415.22
2023-05-03T20:47:31.718Z,101408.22
2023-05-03T20:49:58.108Z,101412.63
2023-05-03T20:52:24.570Z,101404.47
2023-05-03T20:54:52.066Z,101411.63
2023-05-03T20:57:18.470Z,101412.25
2023-05-03T20:59:45.116Z,101409.56
2023-05-03T21:02:12.197Z,101409.78
2023-05-03T21:04:38.675Z,101402.78
2023-05-03T21:07:05.212Z,101409.94
2023-05-03T21:09:33.253Z,101412.19
2023-05-03T21:11:59.697Z,101407.41
2023-05-03T21:14:26.294Z,101416.25
2023-05-03T21:16:52.758Z,101415.22
2023-05-03T21:19:19.265Z,101413.31
2023-05-03T21:21:45.715Z,101412.75
2023-05-03T21:24:12.181Z,101412.88
2023-05-03T21:26:39.085Z,101413.31
2023-05-03T21:29:06.079Z,101415.56
2023-05-03T21:31:32.528Z,101415.09
2023-05-03T21:33:58.963Z,101415.56
2023-05-03T21:36:25.608Z,101420.44
2023-05-03T21:38:53.035Z,101423.03
2023-05-03T21:41:19.657Z,101421.69
2023-05-03T21:43:46.692Z,101423.84
2023-05-03T21:46:13.218Z,101424.19
2023-05-03T21:48:40.705Z,101431.72
2023-05-03T21:51:07.346Z,101430.97
2023-05-03T21:53:35.380Z,101431.16
2023-05-03T21:56:01.819Z,101431.38
2023-05-03T21:58:28.239Z,101429.13
2023-05-03T22:00:54.680Z,101425.75
2023-05-03T22:03:21.169Z,101423.59
2023-05-03T22:05:48.728Z,101428.47
2023-05-03T22:08:17.998Z,101427.44
2023-05-03T22:10:45.417Z,101430.84
2023-05-03T22:13:12.284Z,101430.50
2023-05-03T22:15:38.762Z,101427.22
2023-05-03T22:18:05.483Z,101423.47
2023-05-03T22:20:32.170Z,101429.47
2023-05-03T22:22:58.592Z,101430.16
2023-05-03T22:25:27.049Z,101424.84
2023-05-03T22:27:54.223Z,101419.53
2023-05-03T22:30:21.052Z,101418.59
2023-05-03T22:32:47.890Z,101424.75
2023-05-03T22:35:14.919Z,101430.00
2023-05-03T22:37:41.666Z,101432.03
2023-05-03T22:40:09.438Z,101432.41
2023-05-03T22:42:36.063Z,101439.31
2023-05-03T22:45:02.552Z,101434.88
2023-05-03T22:47:29.256Z,101437.56
2023-05-03T22:49:55.802Z,101440.38
2023-05-03T22:52:22.222Z,101447.41
2023-05-03T22:54:48.652Z,101451.00
2023-05-03T22:57:15.084Z,101442.50
2023-05-03T22:59:44.890Z,101446.25
2023-05-03T23:02:11.318Z,101441.97
2023-05-03T23:04:37.694Z,101437.56
2023-05-03T23:07:04.107Z,101442.84
2023-05-03T23:09:30.900Z,101438.88
2023-05-03T23:11:58.746Z,101441.63
2023-05-03T23:14:25.205Z,101437.31
2023-05-03T23:16:51.751Z,101433.16
2023-05-03T23:19:18.202Z,101442.31
2023-05-03T23:21:44.592Z,101437.31
2023-05-03T23:24:11.395Z,101440.25
2023-05-03T23:26:37.782Z,101434.84
2023-05-03T23:29:04.441Z,101431.47
2023-05-03T23:31:32.945Z,101431.16
2023-05-03T23:34:01.250Z,101433.97
2023-05-03T23:36:27.876Z,101430.34
2023-05-03T23:38:54.315Z,101433.97
2023-05-03T23:41:21.701Z,101432.41
2023-05-03T23:43:48.170Z,101433.53
2023-05-03T23:46:14.604Z,101425.72
2023-05-03T23:48:41.220Z,101429.00
2023-05-03T23:51:07.634Z,101424.25
2023-05-03T23:53:34.030Z,101423.38
2023-05-03T23:56:00.474Z,101431.94
2023-05-03T23:58:26.854Z,101427.63
